Time;durP1;ratioP1;P1;durP2;ratioP2;P2;SDS_P1;SDS_P2;PMS_P1;PMS_P2;Temp;Humidity;BMP_temperature;BMP_pressure;BME280_temperature;BME280_humidity;BME280_pressure;Samples;Min_cycle;Max_cycle;Signal;HPM_P1;HPM_P2
2023/02/12 00:01:22;;;;;;;7.23;5.63;;;6.60;97.30;;;;;;5034095;28;20924;-85
2023/02/12 00:03:47;;;;;;;9.17;6.00;;;6.60;97.30;;;;;;5032901;28;20422;-84
2023/02/12 00:06:13;;;;;;;6.30;4.37;;;6.50;97.30;;;;;;5050738;28;20857;-84
2023/02/12 00:08:39;;;;;;;8.67;6.50;;;6.60;97.30;;;;;;5033251;28;20190;-85
2023/02/12 00:11:16;;;;;;;7.60;4.90;;;6.50;97.30;;;;;;5035127;28;20188;-84
2023/02/12 00:13:42;;;;;;;13.63;5.60;;;6.50;97.30;;;;;;5037614;28;20190;-84
2023/02/12 00:16:10;;;;;;;15.83;7.73;;;6.50;97.30;;;;;;5050235;28;20527;-84
2023/02/12 00:18:36;;;;;;;18.80;8.97;;;6.50;97.30;;;;;;5041302;28;20414;-84
2023/02/12 00:21:02;;;;;;;9.23;6.63;;;6.50;97.30;;;;;;5032589;28;20776;-84
2023/02/12 00:23:28;;;;;;;16.17;6.80;;;6.50;97.30;;;;;;5056042;28;20175;-84
2023/02/12 00:25:53;;;;;;;13.23;5.07;;;6.50;97.30;;;;;;5035647;28;20896;-84
2023/02/12 00:28:19;;;;;;;6.63;6.27;;;6.50;97.30;;;;;;5033030;28;20184;-85
2023/02/12 00:30:44;;;;;;;16.07;5.63;;;6.50;97.30;;;;;;5033019;28;20195;-85
2023/02/12 00:33:10;;;;;;;8.20;4.13;;;6.50;97.30;;;;;;5032320;28;20184;-85
2023/02/12 00:35:35;;;;;;;6.80;5.43;;;6.50;97.30;;;;;;5032212;28;20210;-84
2023/02/12 00:38:01;;;;;;;8.43;6.33;;;6.50;97.30;;;;;;5032520;28;20207;-84
2023/02/12 00:40:26;;;;;;;15.63;4.77;;;6.60;97.30;;;;;;5051353;28;20184;-84
2023/02/12 00:42:52;;;;;;;5.87;4.70;;;6.60;97.30;;;;;;5032974;28;20187;-84
2023/02/12 00:45:17;;;;;;;7.67;7.27;;;6.50;97.30;;;;;;5031519;28;20222;-84
2023/02/12 00:47:43;;;;;;;5.33;3.87;;;6.50;97.30;;;;;;5066066;28;20232;-84
2023/02/12 00:50:09;;;;;;;8.10;6.13;;;6.60;97.30;;;;;;5043409;28;20200;-84
2023/02/12 00:52:34;;;;;;;5.80;5.53;;;6.60;97.30;;;;;;5070191;28;20179;-84
2023/02/12 00:55:00;;;;;;;7.27;5.07;;;6.50;97.30;;;;;;5062426;28;20477;-84
2023/02/12 00:57:25;;;;;;;7.97;3.63;;;6.50;97.30;;;;;;5047595;28;20708;-85
2023/02/12 00:59:51;;;;;;;7.63;4.87;;;6.60;97.30;;;;;;5066723;28;20194;-84
2023/02/12 01:02:17;;;;;;;2.97;2.77;;;6.60;97.30;;;;;;5039474;28;20193;-84
2023/02/12 01:04:42;;;;;;;18.47;8.20;;;6.60;97.30;;;;;;5033966;28;20190;-84
2023/02/12 01:07:08;;;;;;;7.30;5.40;;;6.50;97.30;;;;;;5043229;28;20227;-85
2023/02/12 01:09:34;;;;;;;5.37;4.83;;;6.60;97.30;;;;;;5052645;28;20172;-84
2023/02/12 01:11:59;;;;;;;7.40;4.90;;;6.50;97.30;;;;;;5044000;28;20708;-83
2023/02/12 01:14:24;;;;;;;7.00;6.60;;;6.50;97.30;;;;;;5070490;28;20653;-83
2023/02/12 01:16:50;;;;;;;13.30;7.80;;;6.60;97.30;;;;;;5043675;28;20207;-84
2023/02/12 01:19:15;;;;;;;16.17;5.50;;;6.60;97.30;;;;;;5035570;28;20310;-84
2023/02/12 01:21:41;;;;;;;8.60;5.63;;;6.60;97.30;;;;;;5043995;28;20285;-84
2023/02/12 01:24:07;;;;;;;5.23;3.63;;;6.60;97.30;;;;;;5042036;28;20179;-84
2023/02/12 01:26:32;;;;;;;7.40;4.93;;;6.60;97.30;;;;;;5043671;28;20195;-84
2023/02/12 01:29:00;;;;;;;8.53;4.50;;;6.60;97.30;;;;;;5069771;28;20171;-84
2023/02/12 01:31:29;;;;;;;4.33;3.00;;;6.60;97.30;;;;;;5039179;28;20658;-85
2023/02/12 01:33:57;;;;;;;4.33;3.30;;;6.60;97.30;;;;;;5032408;28;20506;-84
2023/02/12 01:36:23;;;;;;;3.93;3.73;;;6.60;97.30;;;;;;5037168;28;20837;-85
2023/02/12 01:38:50;;;;;;;9.47;4.93;;;6.60;97.30;;;;;;5035996;28;20414;-85
2023/02/12 01:41:18;;;;;;;4.60;4.13;;;6.60;97.30;;;;;;5034375;28;20425;-84
2023/02/12 01:43:45;;;;;;;14.83;7.80;;;6.60;97.30;;;;;;5036710;28;20414;-85
2023/02/12 01:46:12;;;;;;;6.43;5.53;;;6.70;97.30;;;;;;5041975;28;20583;-84
2023/02/12 01:48:44;;;;;;;14.33;7.27;;;6.70;97.30;;;;;;5051649;28;20483;-85
2023/02/12 01:51:13;;;;;;;11.97;4.87;;;6.70;97.30;;;;;;5069342;28;20421;-85
2023/02/12 01:53:44;;;;;;;13.50;5.93;;;6.70;97.30;;;;;;5051752;28;20425;-84
2023/02/12 01:56:10;;;;;;;6.63;5.03;;;6.70;97.30;;;;;;5051404;28;20465;-84
2023/02/12 01:58:40;;;;;;;8.47;4.50;;;6.70;97.30;;;;;;5069721;28;20411;-84
2023/02/12 02:01:08;;;;;;;10.37;6.97;;;6.70;97.30;;;;;;5050908;28;20177;-84
2023/02/12 02:03:36;;;;;;;7.27;6.87;;;6.70;97.30;;;;;;5046770;28;20416;-84
2023/02/12 02:06:15;;;;;;;7.70;5.50;;;6.70;97.30;;;;;;5048728;28;20433;-84
2023/02/12 02:08:41;;;;;;;9.10;8.60;;;6.70;97.30;;;;;;5054688;28;20433;-84
2023/02/12 02:16:42;;;;;;;16.37;5.97;;;6.70;97.30;;;;;;5071505;28;20499;-85
2023/02/12 02:19:49;;;;;;;23.03;7.43;;;6.70;97.30;;;;;;5054353;28;20563;-84
2023/02/12 02:22:17;;;;;;;9.97;3.87;;;6.70;97.30;;;;;;5054977;28;20420;-84
2023/02/12 02:24:57;;;;;;;12.03;7.37;;;6.70;97.30;;;;;;5049582;28;20421;-84
2023/02/12 02:27:38;;;;;;;6.27;3.57;;;6.80;97.30;;;;;;5046425;28;20424;-84
2023/02/12 02:30:11;;;;;;;11.53;4.90;;;6.70;97.30;;;;;;5054608;28;20855;-84
2023/02/12 02:33:01;;;;;;;13.27;4.97;;;6.80;97.30;;;;;;5055090;28;20409;-84
2023/02/12 02:35:35;;;;;;;7.37;6.23;;;6.80;97.30;;;;;;5068713;28;21002;-84
2023/02/12 02:38:19;;;;;;;7.80;4.87;;;6.80;97.30;;;;;;5072655;28;20421;-84
2023/02/12 02:41:01;;;;;;;7.83;4.97;;;6.80;97.30;;;;;;5053428;28;20572;-83
2023/02/12 02:43:30;;;;;;;11.53;5.50;;;6.80;97.30;;;;;;5054622;28;20416;-84
2023/02/12 02:46:10;;;;;;;5.53;5.17;;;6.80;97.30;;;;;;5072010;28;20425;-84
2023/02/12 02:48:42;;;;;;;8.07;5.10;;;6.80;97.30;;;;;;5054839;28;20421;-84
2023/02/12 02:51:20;;;;;;;7.97;4.10;;;6.80;97.30;;;;;;5072376;28;20422;-83
2023/02/12 02:53:53;;;;;;;9.90;4.47;;;6.80;97.30;;;;;;5054346;28;20508;-84
2023/02/12 02:56:21;;;;;;;9.27;6.90;;;6.80;97.30;;;;;;5063814;28;20465;-84
2023/02/12 02:58:54;;;;;;;8.90;4.17;;;6.80;97.30;;;;;;5054203;28;20837;-84
2023/02/12 03:01:30;;;;;;;8.13;5.93;;;6.80;97.30;;;;;;5053815;28;20852;-84
2023/02/12 03:04:00;;;;;;;9.03;5.60;;;6.80;97.30;;;;;;5071768;28;20421;-84
2023/02/12 03:06:31;;;;;;;9.97;5.00;;;6.80;97.30;;;;;;5044882;28;20446;-84
2023/02/12 03:09:04;;;;;;;4.80;2.70;;;6.80;97.30;;;;;;5054173;28;20782;-84
2023/02/12 03:11:32;;;;;;;6.40;4.80;;;6.80;97.30;;;;;;5064021;28;20498;-84
2023/02/12 03:14:22;;;;;;;5.23;3.37;;;6.80;97.30;;;;;;5053782;28;20559;-84
2023/02/12 03:17:23;;;;;;;7.50;6.70;;;6.90;97.30;;;;;;5049253;28;20861;-84
2023/02/12 03:20:00;;;;;;;14.63;4.93;;;6.90;97.30;;;;;;5049246;28;20425;-84
2023/02/12 03:22:30;;;;;;;10.47;3.20;;;6.90;97.30;;;;;;5052829;28;20405;-84
2023/02/12 03:25:08;;;;;;;10.03;6.90;;;6.90;97.30;;;;;;5053658;28;20406;-84
2023/02/12 03:27:45;;;;;;;6.13;3.80;;;6.90;97.30;;;;;;5054294;28;20425;-84
2023/02/12 03:30:12;;;;;;;6.83;3.23;;;6.90;97.30;;;;;;5072267;28;20496;-84
2023/02/12 03:33:07;;;;;;;8.40;5.13;;;6.90;97.30;;;;;;5053819;28;20504;-84
2023/02/12 03:35:40;;;;;;;15.60;6.10;;;6.90;97.30;;;;;;5053728;28;20461;-84
2023/02/12 03:38:21;;;;;;;8.37;3.50;;;6.90;97.30;;;;;;5053725;28;20409;-84
2023/02/12 03:41:02;;;;;;;6.00;2.57;;;6.90;97.30;;;;;;5053540;28;20413;-84
2023/02/12 03:43:42;;;;;;;9.73;5.20;;;6.90;97.30;;;;;;5067006;28;20845;-84
2023/02/12 03:46:18;;;;;;;5.50;4.47;;;6.90;97.30;;;;;;5053126;28;20529;-83
2023/02/12 03:48:57;;;;;;;5.80;4.60;;;6.90;97.30;;;;;;5053808;28;20421;-84
2023/02/12 03:51:32;;;;;;;5.80;3.27;;;6.90;97.30;;;;;;5053435;28;20864;-84
2023/02/12 03:53:57;;;;;;;7.57;3.70;;;6.90;97.30;;;;;;5052908;28;20416;-84
2023/02/12 03:56:30;;;;;;;6.37;4.50;;;6.90;97.30;;;;;;5052915;28;20851;-85
2023/02/12 03:58:56;;;;;;;7.70;4.40;;;6.80;97.30;;;;;;5052203;28;20723;-85
2023/02/12 04:01:22;;;;;;;11.23;7.73;;;6.80;97.30;;;;;;5052351;28;20433;-84
2023/02/12 04:03:47;;;;;;;16.43;6.33;;;6.80;97.30;;;;;;5070191;28;20258;-85
2023/02/12 04:06:21;;;;;;;17.00;9.53;;;6.80;97.30;;;;;;5051683;28;20293;-84
2023/02/12 04:08:47;;;;;;;8.30;5.07;;;6.80;97.30;;;;;;5051606;28;20266;-85
2023/02/12 04:11:40;;;;;;;13.97;6.53;;;6.80;97.30;;;;;;5070519;28;20508;-85
2023/02/12 04:14:24;;;;;;;10.40;4.77;;;6.80;97.30;;;;;;5053214;28;20206;-84
2023/02/12 04:17:08;;;;;;;7.07;4.10;;;6.80;97.30;;;;;;5052827;28;20469;-85
2023/02/12 04:19:47;;;;;;;6.80;4.67;;;6.80;97.30;;;;;;5052751;28;20436;-84
2023/02/12 04:22:40;;;;;;;11.00;5.60;;;6.80;97.30;;;;;;5052926;28;20433;-84
2023/02/12 04:25:41;;;;;;;4.80;4.50;;;6.80;97.30;;;;;;5052039;28;20413;-85
2023/02/12 04:28:34;;;;;;;10.30;7.53;;;6.80;97.30;;;;;;5029865;28;20417;-84
2023/02/12 04:31:19;;;;;;;10.30;5.80;;;6.80;97.30;;;;;;5048594;28;20422;-85
2023/02/12 04:33:49;;;;;;;5.20;4.67;;;6.80;97.30;;;;;;5052577;28;20425;-84
2023/02/12 04:36:30;;;;;;;14.10;6.93;;;6.80;97.30;;;;;;5051958;28;20847;-85
2023/02/12 04:39:04;;;;;;;9.83;5.73;;;6.80;97.30;;;;;;5052450;28;20422;-85
2023/02/12 04:41:30;;;;;;;16.40;7.13;;;6.80;97.30;;;;;;5044504;28;20429;-84
2023/02/12 04:43:55;;;;;;;8.87;3.90;;;6.80;97.30;;;;;;5052125;28;20815;-85
2023/02/12 04:46:21;;;;;;;6.73;3.80;;;6.80;97.30;;;;;;5052014;28;20499;-85
2023/02/12 04:48:56;;;;;;;11.77;6.50;;;6.80;97.30;;;;;;5051775;28;20190;-85
2023/02/12 04:51:22;;;;;;;18.37;8.47;;;6.90;97.30;;;;;;5069915;28;20559;-84
2023/02/12 04:53:47;;;;;;;7.03;5.33;;;6.90;97.30;;;;;;5052122;28;20428;-85
2023/02/12 04:56:13;;;;;;;10.90;5.03;;;6.90;97.30;;;;;;5051554;28;20214;-84
2023/02/12 04:58:40;;;;;;;8.43;5.27;;;6.80;97.30;;;;;;5051652;28;20522;-85
2023/02/12 05:01:07;;;;;;;5.50;4.40;;;6.90;97.30;;;;;;5052265;28;20846;-84
2023/02/12 05:03:33;;;;;;;17.50;5.20;;;6.90;97.30;;;;;;5052208;28;20780;-84
2023/02/12 05:06:03;;;;;;;9.20;4.77;;;6.90;97.30;;;;;;5048577;28;20444;-84
2023/02/12 05:08:29;;;;;;;5.80;3.73;;;6.90;97.30;;;;;;5043219;28;20183;-85
2023/02/12 05:10:54;;;;;;;6.77;3.37;;;6.90;97.30;;;;;;5051565;28;20800;-84
2023/02/12 05:13:20;;;;;;;11.03;6.47;;;6.90;97.30;;;;;;5051798;28;20198;-84
2023/02/12 05:15:45;;;;;;;7.30;4.47;;;6.90;97.30;;;;;;5051866;28;20203;-84
2023/02/12 05:18:11;;;;;;;13.73;3.63;;;6.90;97.30;;;;;;5051295;28;20661;-85
2023/02/12 05:20:36;;;;;;;11.10;5.90;;;6.90;97.30;;;;;;5068737;28;20179;-85
2023/02/12 05:23:02;;;;;;;12.00;5.73;;;6.90;97.30;;;;;;5051378;28;20780;-83
2023/02/12 05:25:27;;;;;;;20.93;6.93;;;6.90;97.30;;;;;;5051923;28;20249;-85
2023/02/12 05:27:55;;;;;;;14.97;5.67;;;6.90;97.30;;;;;;5069260;28;20545;-85
2023/02/12 05:30:20;;;;;;;6.87;5.87;;;6.90;97.30;;;;;;5069203;28;20186;-84
2023/02/12 05:32:46;;;;;;;8.00;4.90;;;6.90;97.30;;;;;;5069819;28;20425;-83
2023/02/12 05:35:11;;;;;;;10.10;5.80;;;6.90;97.30;;;;;;5051137;28;20576;-84
2023/02/12 05:37:37;;;;;;;7.27;4.97;;;6.90;97.30;;;;;;5068539;28;20190;-84
2023/02/12 05:40:05;;;;;;;12.10;6.10;;;6.80;97.30;;;;;;5051471;28;20601;-84
2023/02/12 05:42:31;;;;;;;13.00;7.43;;;6.80;97.30;;;;;;5044285;28;20660;-84
2023/02/12 05:44:56;;;;;;;8.60;4.50;;;6.80;97.30;;;;;;5054278;28;20409;-84
2023/02/12 05:47:21;;;;;;;6.93;5.17;;;6.80;97.30;;;;;;5054763;28;20308;-85
2023/02/12 05:49:47;;;;;;;8.90;5.03;;;6.80;97.30;;;;;;5049385;28;20314;-85
2023/02/12 05:52:12;;;;;;;5.53;4.87;;;6.80;97.30;;;;;;5053155;28;20190;-83
2023/02/12 05:54:38;;;;;;;14.97;5.30;;;6.80;97.30;;;;;;5054888;28;20482;-84
2023/02/12 05:57:05;;;;;;;13.90;6.70;;;6.80;97.30;;;;;;5055498;28;20211;-84
2023/02/12 05:59:32;;;;;;;16.83;5.87;;;6.80;97.30;;;;;;5043477;28;20236;-85
2023/02/12 06:01:58;;;;;;;17.83;4.97;;;6.80;97.30;;;;;;5055421;28;20629;-84
2023/02/12 06:04:26;;;;;;;6.40;4.20;;;6.80;97.30;;;;;;5072622;28;20409;-84
2023/02/12 06:06:52;;;;;;;6.27;4.00;;;6.80;97.30;;;;;;5055134;28;20286;-85
2023/02/12 06:09:18;;;;;;;9.20;8.50;;;6.80;97.30;;;;;;5054993;28;20417;-85
2023/02/12 06:11:44;;;;;;;5.40;4.57;;;6.90;97.30;;;;;;5055678;28;20413;-84
2023/02/12 06:14:13;;;;;;;4.63;2.70;;;6.80;97.30;;;;;;5055094;28;20175;-84
2023/02/12 06:16:39;;;;;;;7.20;4.10;;;6.80;97.30;;;;;;5073230;28;20238;-85
2023/02/12 06:19:05;;;;;;;8.20;5.63;;;6.80;97.30;;;;;;5054579;28;20943;-85
2023/02/12 06:21:32;;;;;;;5.83;4.30;;;6.80;97.30;;;;;;5054781;28;20175;-85
2023/02/12 06:23:58;;;;;;;7.07;6.57;;;6.80;97.30;;;;;;5054897;28;20417;-84
2023/02/12 06:26:24;;;;;;;4.00;3.90;;;6.80;97.30;;;;;;5054628;28;20441;-85
2023/02/12 06:28:49;;;;;;;5.67;4.30;;;6.80;97.30;;;;;;5054830;28;20290;-85
2023/02/12 06:31:23;;;;;;;6.60;4.60;;;6.80;97.30;;;;;;5055684;28;20436;-82
2023/02/12 06:33:49;;;;;;;7.90;3.77;;;6.80;97.30;;;;;;5056308;28;20171;-83
2023/02/12 06:36:15;;;;;;;3.33;3.17;;;6.80;97.30;;;;;;5074758;28;20461;-83
2023/02/12 06:38:41;;;;;;;7.27;4.13;;;6.80;97.30;;;;;;5055450;28;20413;-84
2023/02/12 06:41:06;;;;;;;8.80;5.77;;;6.80;97.30;;;;;;5054829;28;20416;-85
2023/02/12 06:43:32;;;;;;;6.40;4.80;;;6.80;97.30;;;;;;5055144;28;20185;-83
2023/02/12 06:46:01;;;;;;;6.10;4.40;;;6.80;97.30;;;;;;5054579;28;20665;-85
2023/02/12 06:48:27;;;;;;;13.53;4.43;;;6.80;97.30;;;;;;5073068;28;20191;-85
2023/02/12 06:50:53;;;;;;;8.10;3.30;;;6.80;97.30;;;;;;5054811;28;20448;-84
2023/02/12 06:53:18;;;;;;;8.80;6.23;;;6.80;97.30;;;;;;5072236;28;20289;-84
2023/02/12 06:55:44;;;;;;;8.53;4.83;;;6.80;97.30;;;;;;5054808;28;20410;-84
2023/02/12 06:58:09;;;;;;;7.17;4.20;;;6.90;97.30;;;;;;5054308;28;20183;-83
2023/02/12 07:00:35;;;;;;;5.67;4.10;;;6.90;97.30;;;;;;5054675;28;20178;-84
2023/02/12 07:03:00;;;;;;;6.23;5.90;;;6.90;97.30;;;;;;5072023;28;20739;-84
2023/02/12 07:05:26;;;;;;;5.43;3.50;;;6.90;97.30;;;;;;5054003;28;20207;-85
2023/02/12 07:07:51;;;;;;;13.63;4.73;;;6.90;97.30;;;;;;5054557;28;20215;-85
2023/02/12 07:10:17;;;;;;;9.73;4.80;;;6.90;97.30;;;;;;5072350;28;20226;-84
2023/02/12 07:12:43;;;;;;;7.97;5.27;;;6.90;97.30;;;;;;5052737;28;20616;-85
2023/02/12 07:15:09;;;;;;;8.20;6.77;;;6.90;97.30;;;;;;5052358;28;20517;-84
2023/02/12 07:17:35;;;;;;;2.83;2.53;;;6.90;97.30;;;;;;5042477;28;20409;-85
2023/02/12 07:20:01;;;;;;;11.90;2.90;;;6.90;97.30;;;;;;5072635;28;20173;-84
2023/02/12 07:22:27;;;;;;;15.17;6.80;;;7.00;97.30;;;;;;5049792;28;20274;-84
2023/02/12 07:24:52;;;;;;;5.30;4.27;;;7.00;97.30;;;;;;5045405;28;20851;-83
2023/02/12 07:27:18;;;;;;;6.50;3.93;;;7.00;97.30;;;;;;5052044;28;20182;-83
2023/02/12 07:29:43;;;;;;;6.77;4.03;;;7.00;97.30;;;;;;5064528;28;20531;-85
2023/02/12 07:32:09;;;;;;;5.60;3.87;;;7.00;97.30;;;;;;5050265;28;20210;-84
2023/02/12 07:34:34;;;;;;;8.30;4.50;;;7.10;97.30;;;;;;5060572;28;20179;-85
2023/02/12 07:37:00;;;;;;;3.67;2.70;;;7.10;97.30;;;;;;5052138;28;20215;-85
2023/02/12 07:39:25;;;;;;;7.70;3.73;;;7.10;97.30;;;;;;5065627;28;20183;-82
2023/02/12 07:41:50;;;;;;;10.80;5.90;;;7.10;97.30;;;;;;5070434;28;20178;-82
2023/02/12 07:44:16;;;;;;;16.37;4.60;;;7.10;97.30;;;;;;5054531;28;20289;-84
2023/02/12 07:46:46;;;;;;;5.13;3.53;;;7.20;97.30;;;;;;5072769;28;20222;-84
2023/02/12 07:49:18;;;;;;;5.60;3.40;;;7.10;97.30;;;;;;5038492;28;20179;-84
2023/02/12 07:51:43;;;;;;;3.03;2.90;;;7.20;97.30;;;;;;5058594;28;20427;-84
2023/02/12 07:54:10;;;;;;;10.70;6.03;;;7.20;97.30;;;;;;5042276;28;20436;-84
2023/02/12 07:56:37;;;;;;;6.63;4.10;;;7.20;97.30;;;;;;5043582;28;20261;-85
2023/02/12 07:59:06;;;;;;;5.47;3.67;;;7.20;97.30;;;;;;5062291;28;20513;-85
2023/02/12 08:01:35;;;;;;;3.80;3.60;;;7.20;97.30;;;;;;5047297;28;20441;-85
2023/02/12 08:04:07;;;;;;;14.97;3.70;;;7.20;97.30;;;;;;5040171;28;20572;-85
2023/02/12 08:06:35;;;;;;;5.17;3.77;;;7.30;97.30;;;;;;5060751;28;20975;-84
2023/02/12 08:09:03;;;;;;;5.27;3.07;;;7.30;97.30;;;;;;5053746;28;20787;-85
2023/02/12 08:11:29;;;;;;;10.30;5.67;;;7.30;97.30;;;;;;5063640;28;20430;-85
2023/02/12 08:13:56;;;;;;;3.90;3.03;;;7.30;97.30;;;;;;5065574;28;20457;-84
2023/02/12 08:16:24;;;;;;;5.30;5.00;;;7.30;97.30;;;;;;5055723;28;20507;-83
2023/02/12 08:18:51;;;;;;;4.47;3.33;;;7.40;97.30;;;;;;5054838;28;20418;-85
2023/02/12 08:21:19;;;;;;;19.50;4.80;;;7.40;97.30;;;;;;5042878;28;21169;-84
2023/02/12 08:23:48;;;;;;;12.87;6.30;;;7.40;97.30;;;;;;5057693;28;20425;-85
2023/02/12 08:26:19;;;;;;;4.23;3.93;;;7.40;97.30;;;;;;5036494;28;20457;-83
2023/02/12 08:28:48;;;;;;;11.93;3.67;;;7.40;97.30;;;;;;5034387;28;20471;-84
2023/02/12 08:31:19;;;;;;;5.27;4.10;;;7.40;97.30;;;;;;5033225;28;20435;-83
2023/02/12 08:33:46;;;;;;;7.20;4.97;;;7.50;97.30;;;;;;5061049;28;20422;-85
2023/02/12 08:36:14;;;;;;;7.60;5.13;;;7.40;97.30;;;;;;5062272;28;20456;-85
2023/02/12 08:38:40;;;;;;;2.80;2.60;;;7.50;97.30;;;;;;5041180;28;20418;-84
2023/02/12 08:41:08;;;;;;;5.57;3.83;;;7.50;97.30;;;;;;5059237;28;20831;-85
2023/02/12 08:43:35;;;;;;;6.33;2.70;;;7.50;97.30;;;;;;5030816;28;20422;-85
2023/02/12 08:46:24;;;;;;;5.53;2.97;;;7.50;97.30;;;;;;5054233;28;20487;-86
2023/02/12 08:49:02;;;;;;;4.67;3.00;;;7.50;97.30;;;;;;5041466;28;20499;-85
2023/02/12 08:51:30;;;;;;;5.87;3.43;;;7.50;97.30;;;;;;5045267;28;20425;-85
2023/02/12 08:53:58;;;;;;;4.80;3.73;;;7.50;97.30;;;;;;5071912;28;20425;-85
2023/02/12 08:56:26;;;;;;;2.13;1.97;;;7.50;97.30;;;;;;5037203;28;20553;-86
2023/02/12 08:58:51;;;;;;;7.20;3.93;;;7.50;97.30;;;;;;5039902;28;20453;-85
2023/02/12 09:01:21;;;;;;;3.63;2.87;;;7.60;97.30;;;;;;5041934;28;20413;-85
2023/02/12 09:03:48;;;;;;;12.77;2.80;;;7.60;97.30;;;;;;5035207;28;20558;-85
2023/02/12 09:06:15;;;;;;;6.70;4.37;;;7.70;97.30;;;;;;5037338;28;20465;-85
2023/02/12 09:08:41;;;;;;;3.57;3.23;;;7.70;97.30;;;;;;5041552;28;20426;-86
2023/02/12 09:11:16;;;;;;;7.63;5.17;;;7.80;97.30;;;;;;5063621;28;20425;-85
2023/02/12 09:13:43;;;;;;;5.07;4.10;;;7.80;97.30;;;;;;5034723;28;20677;-85
2023/02/12 09:16:09;;;;;;;7.27;4.43;;;7.90;97.30;;;;;;5059870;28;20461;-85
2023/02/12 09:18:35;;;;;;;4.33;2.53;;;7.90;97.30;;;;;;5035145;28;20426;-86
2023/02/12 09:21:03;;;;;;;37.53;5.50;;;7.90;97.30;;;;;;5055319;28;20433;-86
2023/02/12 09:23:29;;;;;;;5.23;4.93;;;7.90;97.30;;;;;;5041224;28;20456;-87
2023/02/12 09:25:55;;;;;;;4.87;2.37;;;7.90;97.30;;;;;;5041304;28;20952;-86
2023/02/12 09:28:20;;;;;;;9.17;4.23;;;7.90;97.30;;;;;;5044867;28;20217;-85
2023/02/12 09:30:46;;;;;;;3.77;3.57;;;7.90;97.30;;;;;;5034410;28;20180;-86
2023/02/12 09:33:11;;;;;;;5.90;3.40;;;7.80;97.30;;;;;;5035026;28;20305;-86
2023/02/12 09:35:38;;;;;;;6.80;4.50;;;7.80;97.30;;;;;;5037754;28;20496;-85
2023/02/12 09:38:05;;;;;;;6.50;5.10;;;7.80;97.30;;;;;;5040698;28;20180;-86
2023/02/12 09:40:42;;;;;;;4.27;3.57;;;7.80;97.30;;;;;;5042690;28;20432;-86
2023/02/12 09:43:52;;;;;;;5.40;4.10;;;7.90;97.30;;;;;;5064459;28;20512;-86
2023/02/12 09:46:31;;;;;;;5.97;2.80;;;7.90;97.30;;;;;;5044914;28;20460;-85
2023/02/12 09:49:21;;;;;;;4.37;2.90;;;7.90;97.30;;;;;;5052982;28;20455;-85
2023/02/12 09:51:52;;;;;;;4.27;4.00;;;7.90;97.30;;;;;;5041709;28;20431;-86
2023/02/12 09:54:20;;;;;;;4.57;3.20;;;7.90;97.30;;;;;;5040453;28;20457;-86
2023/02/12 09:56:53;;;;;;;6.57;4.57;;;7.90;97.30;;;;;;5044064;28;20473;-86
2023/02/12 09:59:43;;;;;;;6.40;4.80;;;7.90;97.30;;;;;;5051953;28;20507;-85
2023/02/12 10:02:17;;;;;;;10.23;2.20;;;7.90;97.30;;;;;;5047626;28;20421;-85
2023/02/12 10:04:45;;;;;;;5.23;2.87;;;7.90;97.30;;;;;;5050948;28;20805;-86
2023/02/12 10:07:38;;;;;;;4.33;4.03;;;7.90;97.30;;;;;;5051577;28;20448;-86
2023/02/12 10:10:33;;;;;;;7.70;2.73;;;7.90;97.30;;;;;;5039918;28;20413;-85
2023/02/12 10:13:02;;;;;;;5.17;3.00;;;7.90;97.30;;;;;;5052632;28;20423;-86
2023/02/12 10:15:41;;;;;;;5.63;4.53;;;7.90;97.30;;;;;;5051437;28;20457;-84
2023/02/12 10:18:29;;;;;;;13.40;3.27;;;7.90;97.30;;;;;;5068484;28;20950;-86
2023/02/12 10:21:05;;;;;;;4.30;2.93;;;7.90;97.30;;;;;;5046053;28;20457;-86
2023/02/12 10:23:47;;;;;;;4.77;4.03;;;7.90;97.30;;;;;;5062689;28;20498;-86
2023/02/12 10:26:20;;;;;;;3.60;3.03;;;7.90;97.30;;;;;;5066457;28;20437;-85
2023/02/12 10:28:46;;;;;;;6.70;4.97;;;8.00;97.30;;;;;;5049772;28;20508;-86
2023/02/12 10:31:30;;;;;;;18.83;4.63;;;8.00;97.30;;;;;;5048098;28;20426;-86
2023/02/12 10:33:56;;;;;;;13.03;5.23;;;8.00;97.30;;;;;;5043647;28;20463;-86
2023/02/12 10:36:42;;;;;;;6.90;4.20;;;8.00;97.30;;;;;;5053789;28;20497;-86
2023/02/12 10:39:28;;;;;;;6.63;3.90;;;8.00;97.30;;;;;;5049593;28;20277;-86
2023/02/12 10:42:17;;;;;;;4.83;3.20;;;8.00;97.30;;;;;;5047386;28;20926;-86
2023/02/12 10:44:43;;;;;;;3.47;3.27;;;8.00;97.30;;;;;;5054209;28;20962;-86
2023/02/12 10:47:21;;;;;;;3.87;2.80;;;8.10;97.30;;;;;;5053945;28;20469;-86
2023/02/12 10:49:56;;;;;;;4.17;3.10;;;8.10;97.30;;;;;;5038171;28;20547;-86
2023/02/12 10:52:35;;;;;;;8.43;3.30;;;8.10;97.30;;;;;;5065212;28;20410;-87
2023/02/12 10:55:01;;;;;;;2.83;2.63;;;8.10;97.30;;;;;;5055579;28;20413;-86
2023/02/12 10:57:29;;;;;;;6.40;3.40;;;8.10;97.30;;;;;;5073140;28;20436;-86
2023/02/12 11:00:13;;;;;;;6.33;4.70;;;8.20;97.30;;;;;;5055307;28;20186;-86
2023/02/12 11:02:39;;;;;;;7.27;3.40;;;8.20;97.30;;;;;;5055447;28;20429;-87
2023/02/12 11:05:24;;;;;;;3.17;2.97;;;8.20;97.30;;;;;;5072364;28;20425;-86
2023/02/12 11:07:51;;;;;;;3.10;2.90;;;8.20;97.30;;;;;;5047152;28;20217;-86
2023/02/12 11:10:30;;;;;;;3.53;3.20;;;8.30;97.30;;;;;;5055453;28;20483;-86
2023/02/12 11:12:58;;;;;;;3.60;3.40;;;8.30;97.30;;;;;;5048948;28;20436;-87
2023/02/12 11:15:30;;;;;;;4.13;3.90;;;8.40;97.30;;;;;;5055332;28;20464;-86
2023/02/12 11:18:01;;;;;;;7.27;3.97;;;8.40;97.30;;;;;;5055547;28;20440;-86
2023/02/12 11:20:47;;;;;;;3.33;3.03;;;8.40;97.30;;;;;;5055984;28;20422;-86
2023/02/12 11:23:31;;;;;;;8.80;3.83;;;8.40;97.30;;;;;;5073057;28;20449;-87
2023/02/12 11:26:03;;;;;;;10.07;3.73;;;8.50;97.30;;;;;;5048972;28;20491;-86
2023/02/12 11:28:29;;;;;;;10.67;4.00;;;8.50;97.30;;;;;;5054207;28;20417;-87
2023/02/12 11:30:59;;;;;;;8.57;2.80;;;8.50;97.30;;;;;;5055145;28;20430;-87
2023/02/12 11:33:34;;;;;;;7.67;4.90;;;8.60;97.30;;;;;;5054588;28;20430;-87
2023/02/12 11:36:22;;;;;;;3.97;2.87;;;8.60;97.30;;;;;;5054401;28;20493;-87
2023/02/12 11:38:54;;;;;;;5.17;3.93;;;8.70;97.30;;;;;;5051662;28;20426;-86
2023/02/12 11:41:38;;;;;;;5.43;4.60;;;8.80;97.30;;;;;;5055879;28;20417;-87
2023/02/12 11:44:12;;;;;;;2.60;2.40;;;8.80;97.30;;;;;;5067124;28;20421;-86
2023/02/12 11:46:38;;;;;;;7.13;2.60;;;8.80;97.30;;;;;;5051821;28;20468;-87
2023/02/12 11:49:08;;;;;;;1.63;1.53;;;8.80;97.30;;;;;;5072230;28;20418;-86
2023/02/12 11:51:35;;;;;;;4.67;3.07;;;8.80;97.30;;;;;;5053335;28;20488;-86
2023/02/12 11:54:02;;;;;;;2.50;1.43;;;8.80;97.30;;;;;;5053799;28;20508;-86
2023/02/12 11:56:47;;;;;;;2.40;1.60;;;8.70;97.30;;;;;;5077423;28;20479;-85
2023/02/12 11:59:35;;;;;;;5.07;1.83;;;8.60;97.30;;;;;;5067880;28;20417;-85
2023/02/12 12:02:16;;;;;;;2.53;2.10;;;8.60;97.30;;;;;;5053239;28;20417;-86
2023/02/12 12:04:45;;;;;;;5.87;3.00;;;8.60;97.30;;;;;;5055359;28;20417;-85
2023/02/12 12:07:22;;;;;;;2.80;1.97;;;8.70;97.30;;;;;;5050572;28;20433;-86
2023/02/12 12:10:30;;;;;;;2.07;1.93;;;8.70;97.30;;;;;;5054054;28;20789;-86
2023/02/12 12:13:00;;;;;;;5.20;4.90;;;8.70;97.30;;;;;;4950541;28;20429;-85
2023/02/12 12:21:37;;;;;;;3.10;2.17;;;8.60;97.30;;;;;;5069459;28;20423;-86
2023/02/12 12:24:30;;;;;;;3.83;3.67;;;8.60;97.30;;;;;;5069604;28;20441;-86
2023/02/12 12:27:13;;;;;;;2.00;1.73;;;8.60;97.30;;;;;;5049019;28;20813;-86
2023/02/12 12:29:50;;;;;;;2.27;2.07;;;8.60;97.30;;;;;;5045999;28;20936;-86
2023/02/12 12:32:19;;;;;;;4.53;4.10;;;8.60;97.30;;;;;;5072369;28;20416;-87
2023/02/12 12:34:44;;;;;;;3.87;3.03;;;8.60;97.30;;;;;;5049640;28;20422;-86
2023/02/12 12:37:31;;;;;;;3.07;2.87;;;8.50;97.30;;;;;;5045777;28;20531;-86
2023/02/12 12:40:36;;;;;;;8.33;3.00;;;8.50;97.30;;;;;;5058296;28;20172;-85
2023/02/12 12:43:10;;;;;;;4.80;2.03;;;8.50;97.30;;;;;;5047138;28;20979;-85
2023/02/12 12:46:03;;;;;;;2.83;2.30;;;8.40;97.30;;;;;;5066688;28;20433;-85
2023/02/12 12:48:50;;;;;;;2.60;2.40;;;8.40;97.30;;;;;;5070320;28;20429;-87
2023/02/12 12:51:40;;;;;;;7.73;5.43;;;8.40;97.30;;;;;;5045462;28;20465;-86
2023/02/12 12:54:14;;;;;;;8.53;4.73;;;8.40;97.30;;;;;;5044876;28;20421;-86
2023/02/12 12:57:15;;;;;;;6.10;2.93;;;8.50;97.30;;;;;;5050325;28;20513;-86
2023/02/12 13:00:14;;;;;;;3.07;2.07;;;8.50;97.30;;;;;;5073359;28;20815;-82
2023/02/12 13:03:19;;;;;;;2.53;2.33;;;8.50;97.30;;;;;;5050313;28;20425;-86
2023/02/12 13:06:04;;;;;;;1.97;1.93;;;8.60;97.30;;;;;;5052651;28;20978;-87
2023/02/12 13:09:05;;;;;;;3.87;3.57;;;8.60;97.30;;;;;;5051598;28;20512;-85
2023/02/12 13:11:39;;;;;;;4.27;2.77;;;8.70;97.30;;;;;;5048721;28;20970;-86
2023/02/12 13:14:16;;;;;;;3.93;3.20;;;8.70;97.30;;;;;;5046809;28;20421;-87
2023/02/12 13:17:05;;;;;;;2.97;1.87;;;8.60;97.30;;;;;;5048865;28;20543;-87
2023/02/12 13:19:30;;;;;;;7.50;3.83;;;8.60;97.30;;;;;;5044548;28;20532;-86
2023/02/12 13:22:08;;;;;;;5.00;3.00;;;8.60;97.30;;;;;;5063194;28;20469;-88
2023/02/12 13:25:04;;;;;;;4.77;2.93;;;8.60;97.30;;;;;;5043578;28;20171;-86
2023/02/12 13:27:34;;;;;;;6.53;3.10;;;8.60;97.30;;;;;;5025190;28;20410;-86
2023/02/12 13:30:19;;;;;;;11.40;2.83;;;8.60;97.30;;;;;;5065163;28;20540;-86
2023/02/12 13:33:06;;;;;;;5.17;2.10;;;8.60;97.30;;;;;;5073698;28;20421;-83